Juneau, AK

8:41 AM AKDT on April 26, 2015 (GMT -0800)
Juneau International | | Change Station
CLOSE
Current Station
Airport
Location: Juneau,
Elevation: 23 ft
Nearby Weather Stations

Elev 23 ft 58.35 °N, 134.58 °W | Updated 48 minutes ago

Overcast
Overcast
48 °F
Feels Like 48 °F
N
6
Wind Variable Wind from NE

Today
High -- | Low -- °F
--% Chance of Precip.
Yesterday
High -- | Low -- °F
Precip. -- in
5:17 AM 8:36 PM
First Quarter, 57% visible
Pressure 29.65 in
Visibility 10.0 miles
Clouds Few 7500 ft
Overcast 9000 ft
Dew Point 35 °F
Humidity 61%
Rainfall 0.00 in
Snow Depth Not available.
UV 0 out of 12
Pollen Not available.
Air Quality Not available.
Flu Activity Sporadic
METAR PAJN 261553Z 05005KT 10SM FEW075 OVC090 09/02 A2965 RMK AO2 SLP041 T00890017

More Conditions Fewer Conditions

Pressure 29.65 in
Visibility 10.0 miles
Clouds Few 7500 ft
Overcast 9000 ft
Dew Point 35 °F
Humidity 61%
Rainfall 0.00 in
Snow Depth Not available.
UV 0 out of 12
Pollen Not available.
Air Quality Not available.
Flu Activity Sporadic
METAR PAJN 261553Z 05005KT 10SM FEW075 OVC090 09/02 A2965 RMK AO2 SLP041 T00890017

More Conditions Fewer Conditions

10-Day Weather Forecast

Almanac

Astronomy

Apr. 26, 2015 Rise Set
Actual Time
Civil Twilight
Nautical Twilight
Astronomical Twilight
Moon
Length of Visible Light
Length of Day
Tomorrow will be .
, % of the Moon is Illuminated

Today's Extremes

State Highs State Lows

Community

WunderPhotos

Upload Photos

1,817,054 photos uploaded!

WunderBlogs® & News

Nearby

Air Quality

  Air Quality AQ Index Pollutant
Not available.

Snow Depth

Station Depth Elevation

Earthquake Activity

City Distance Mag. Time & Date
Minimum magnitude displayed is 2.5.

Coastal Water Temperatures

Place Temperature

Stations

Nearby Weather Stations

Station Location Temp. Windchill Dew Point Humidity Wind Precip. Elev Updated Type